Date,TemperatureHighF,TemperatureAvgF,TemperatureLowF,DewpointHighF,DewpointAvgF,DewpointLowF,HumidityHigh,HumidityAvg,HumidityLow,PressureMaxIn,PressureMinIn,WindSpeedMaxMPH,WindSpeedAvgMPH,GustSpeedMaxMPH,PrecipitationSumIn
2013-3-1,64,61,57,56,51,46,86,69,58,29.97,29.88,31,10,31,0.00
2013-3-2,65,57,51,47,42,34,71,57,40,30.01,29.93,56,17,56,0.00
2013-3-3,62,54,48,46,42,38,90,67,44,30.12,29.93,47,13,47,0.02
2013-3-4,69,53,41,42,36,29,81,54,26,30.18,30.09,36,11,36,0.00
2013-3-5,76,62,47,56,51,42,94,70,45,30.15,30.06,36,6,36,0.00
2013-3-6,78,65,51,64,50,22,92,64,21,30.07,29.93,51,18,51,0.00
2013-3-7,72,58,46,54,43,34,89,59,36,30.16,30.04,33,10,33,0.00
2013-3-8,76,62,51,52,49,37,94,66,25,30.17,30.07,27,7,27,0.00
2013-3-9,74,63,53,56,52,49,92,68,47,30.16,30.07,37,9,37,0.00
2013-3-10,75,69,62,60,55,51,72,61,46,30.13,30.04,39,11,39,0.00
2013-3-11,77,71,67,61,59,55,75,66,49,30.07,29.93,35,11,35,0.00
2013-3-12,81,74,68,67,64,61,84,72,56,29.97,29.88,40,14,40,0.00
2013-3-13,75,65,56,65,52,39,91,66,30,30.09,29.95,36,13,36,0.00
2013-3-14,72,60,53,53,44,34,90,60,28,30.18,30.06,40,15,40,0.00
2013-3-15,72,62,51,53,48,43,78,62,35,30.22,30.12,32,10,32,0.00
2013-3-16,75,64,51,57,52,49,95,68,44,30.16,30.06,29,5,29,0.00
2013-3-17,76,67,56,60,57,52,93,72,51,30.12,30.00,35,6,35,0.00
2013-3-18,79,71,63,69,64,58,94,80,64,30.04,29.94,40,11,40,0.05
2013-3-19,79,72,67,70,67,64,95,84,62,29.99,29.80,39,5,39,0.00
2013-3-20,85,72,64,69,62,55,96,74,43,29.95,29.78,45,5,45,0.00
2013-3-21,75,67,61,61,50,34,92,61,25,29.92,29.81,34,12,34,0.00
2013-3-22,76,70,52,69,60,49,90,72,55,29.98,29.87,38,11,38,0.00
2013-3-23,87,78,71,73,69,63,95,76,49,29.95,29.78,34,8,34,0.02
2013-3-24,88,80,74,73,70,67,94,75,52,29.86,29.67,64,19,64,0.01
2013-3-25,78,73,64,72,59,41,93,65,35,29.96,29.72,40,9,40,0.01
2013-3-26,66,60,50,45,37,30,61,44,27,30.18,29.96,45,22,45,0.00
2013-3-27,68,56,45,46,39,33,77,55,32,30.23,30.14,37,12,37,0.00
2013-3-28,73,60,49,48,43,35,81,56,27,30.24,30.13,32,8,32,0.00
2013-3-29,74,64,54,52,48,41,73,57,38,30.26,30.17,34,9,34,0.00
2013-3-30,75,65,54,56,51,46,90,63,38,30.23,30.13,25,3,25,0.00
2013-3-31,80,70,58,65,60,53,91,72,52,30.16,30.02,45,8,45,0.00